createdAt,value
2019-02-11T00:00:25.690Z,58.08
2019-02-11T00:02:57.394Z,58.06
2019-02-11T00:05:29.099Z,57.97
2019-02-11T00:08:00.751Z,57.93
2019-02-11T00:10:32.357Z,57.88
2019-02-11T00:13:10.500Z,57.82
2019-02-11T00:15:37.540Z,57.80
2019-02-11T00:18:09.199Z,57.82
2019-02-11T00:20:40.841Z,57.83
2019-02-11T00:23:12.496Z,57.83
2019-02-11T00:25:45.127Z,57.86
2019-02-11T00:28:16.807Z,57.89
2019-02-11T00:30:48.656Z,57.95
2019-02-11T00:33:21.837Z,57.98
2019-02-11T00:35:54.514Z,58.05
2019-02-11T00:38:29.910Z,58.05
2019-02-11T00:41:01.546Z,58.12
2019-02-11T00:43:33.131Z,58.12
2019-02-11T00:46:04.849Z,58.09
2019-02-11T00:48:36.463Z,58.08
2019-02-11T00:51:09.913Z,58.01
2019-02-11T00:53:41.519Z,58.00
2019-02-11T00:56:13.139Z,58.02
2019-02-11T00:58:45.255Z,58.05
2019-02-11T01:01:17.025Z,58.13
2019-02-11T01:03:48.651Z,58.18
2019-02-11T01:06:20.237Z,58.26
2019-02-11T01:08:55.274Z,58.31
2019-02-11T01:11:26.883Z,58.35
2019-02-11T01:13:58.531Z,58.36
2019-02-11T01:16:30.234Z,58.37
2019-02-11T01:19:01.867Z,58.38
2019-02-11T01:21:33.480Z,58.36
2019-02-11T01:24:05.194Z,58.41
2019-02-11T01:26:37.040Z,58.44
2019-02-11T01:29:08.749Z,58.50
2019-02-11T01:31:40.673Z,58.55
2019-02-11T01:34:12.326Z,58.62
2019-02-11T01:36:43.961Z,58.71
2019-02-11T01:39:15.574Z,58.74
2019-02-11T01:41:47.198Z,58.76
2019-02-11T01:44:18.910Z,58.80
2019-02-11T01:46:50.634Z,58.83
2019-02-11T01:49:22.330Z,58.84
2019-02-11T01:51:53.919Z,58.83
2019-02-11T01:54:25.524Z,58.86
2019-02-11T01:56:57.141Z,58.86
2019-02-11T01:59:29.420Z,58.89
2019-02-11T02:02:01.027Z,58.94
2019-02-11T02:04:34.355Z,59.04
2019-02-11T02:07:05.944Z,59.08
2019-02-11T02:09:37.607Z,59.18
2019-02-11T02:12:10.230Z,59.19
2019-02-11T02:14:41.870Z,59.18
2019-02-11T02:17:13.641Z,59.21
2019-02-11T02:24:49.655Z,59.14
2019-02-11T02:27:21.822Z,59.08
2019-02-11T02:29:53.532Z,59.07
2019-02-11T02:32:25.225Z,59.04
2019-02-11T02:34:56.947Z,58.95
2019-02-11T02:37:28.854Z,58.90
2019-02-11T02:40:00.779Z,58.88
2019-02-11T02:42:33.839Z,58.82
2019-02-11T02:45:06.135Z,58.77
2019-02-11T02:47:37.847Z,58.75
2019-02-11T02:50:10.297Z,58.73
2019-02-11T02:52:41.874Z,58.66
2019-02-11T02:55:13.492Z,58.65
2019-02-11T02:57:45.206Z,58.67
2019-02-11T03:00:16.846Z,58.64
2019-02-11T03:02:48.441Z,58.57
2019-02-11T03:05:20.458Z,58.56
2019-02-11T03:07:52.110Z,58.55
2019-02-11T03:10:23.794Z,58.52
2019-02-11T03:12:55.404Z,58.50
2019-02-11T03:15:26.972Z,58.50
2019-02-11T03:17:58.816Z,58.50
2019-02-11T03:20:30.509Z,58.52
2019-02-11T03:23:03.399Z,58.52
2019-02-11T03:25:35.071Z,58.55
2019-02-11T03:28:06.771Z,58.54
2019-02-11T03:30:38.365Z,58.52
2019-02-11T03:33:09.964Z,58.58
2019-02-11T03:35:41.560Z,58.57
2019-02-11T03:38:13.300Z,58.58
2019-02-11T03:40:45.306Z,58.59
2019-02-11T03:43:16.985Z,58.57
2019-02-11T03:45:48.585Z,58.56
2019-02-11T03:48:20.214Z,58.55
2019-02-11T03:50:52.010Z,58.55
2019-02-11T03:53:23.711Z,58.55
2019-02-11T03:55:55.283Z,58.54
2019-02-11T03:58:27.278Z,58.54
2019-02-11T04:00:59.956Z,58.54
2019-02-11T04:03:31.590Z,58.52
2019-02-11T04:06:03.155Z,58.48
2019-02-11T04:08:35.111Z,58.44
2019-02-11T04:11:06.698Z,58.44
2019-02-11T04:13:38.454Z,58.38
2019-02-11T04:16:10.038Z,58.38
2019-02-11T04:18:41.621Z,58.33
2019-02-11T04:21:13.247Z,58.32
2019-02-11T04:23:45.057Z,58.32
2019-02-11T04:26:16.613Z,58.30
2019-02-11T04:28:48.283Z,58.29
2019-02-11T04:31:19.895Z,58.28
2019-02-11T04:33:51.571Z,58.28
2019-02-11T04:36:23.161Z,58.27
2019-02-11T04:38:54.983Z,58.29
2019-02-11T04:41:26.639Z,58.27
2019-02-11T04:43:58.307Z,58.23
2019-02-11T04:46:29.931Z,58.21
2019-02-11T04:49:01.610Z,58.21
2019-02-11T04:51:33.349Z,58.19
2019-02-11T04:54:06.488Z,58.20
2019-02-11T04:56:38.196Z,58.18
2019-02-11T04:59:09.974Z,58.17
2019-02-11T05:01:41.573Z,58.17
2019-02-11T05:04:13.195Z,58.14
2019-02-11T05:06:44.917Z,58.13
2019-02-11T05:09:16.565Z,58.14
2019-02-11T05:11:48.361Z,58.10
2019-02-11T05:14:21.918Z,58.06
2019-02-11T05:16:53.686Z,58.06
2019-02-11T05:19:25.377Z,58.07
2019-02-11T05:21:57.103Z,58.07
2019-02-11T05:24:28.843Z,58.07
2019-02-11T05:27:00.651Z,58.09
2019-02-11T05:29:32.265Z,58.09
2019-02-11T05:32:04.287Z,58.07
2019-02-11T05:34:36.040Z,58.02
2019-02-11T05:37:08.669Z,58.02
2019-02-11T05:39:40.297Z,58.00
2019-02-11T05:42:12.128Z,58.00
2019-02-11T05:44:53.184Z,58.02
2019-02-11T05:47:17.507Z,57.98
2019-02-11T05:49:49.122Z,57.95
2019-02-11T05:52:22.432Z,57.90
2019-02-11T05:54:54.205Z,57.90
2019-02-11T05:57:26.981Z,57.88
2019-02-11T05:59:58.772Z,57.87
2019-02-11T06:02:30.358Z,57.82
2019-02-11T06:05:02.067Z,57.81
2019-02-11T06:07:33.683Z,57.79
2019-02-11T06:10:05.662Z,57.79
2019-02-11T06:12:38.965Z,57.77
2019-02-11T06:15:12.073Z,57.75
2019-02-11T06:17:43.827Z,57.75
2019-02-11T06:20:15.523Z,57.71
2019-02-11T06:22:47.172Z,57.68
2019-02-11T06:25:18.963Z,57.69
2019-02-11T06:27:50.848Z,57.60
2019-02-11T06:30:22.485Z,57.56
2019-02-11T06:32:54.142Z,57.54
2019-02-11T06:35:25.827Z,57.52
2019-02-11T06:37:57.469Z,57.49
2019-02-11T06:40:29.210Z,57.47
2019-02-11T06:43:00.833Z,57.44
2019-02-11T06:45:32.638Z,57.44
2019-02-11T06:48:04.319Z,57.44
2019-02-11T06:50:35.995Z,57.42
2019-02-11T06:53:07.716Z,57.39
2019-02-11T06:55:39.454Z,57.40
2019-02-11T06:58:11.424Z,57.32
2019-02-11T07:00:43.914Z,57.33
2019-02-11T07:03:15.539Z,57.33
2019-02-11T07:05:47.157Z,57.32
2019-02-11T07:08:18.884Z,57.27
2019-02-11T07:10:55.703Z,57.25
2019-02-11T07:13:24.181Z,57.21
2019-02-11T07:15:55.980Z,57.17
2019-02-11T07:18:27.664Z,57.15
2019-02-11T07:20:59.722Z,57.13
2019-02-11T07:23:31.316Z,57.11
2019-02-11T07:26:03.391Z,57.11
2019-02-11T07:30:55.525Z,57.09
2019-02-11T07:33:27.183Z,57.08
2019-02-11T07:35:59.303Z,57.04
2019-02-11T07:38:30.969Z,57.02
2019-02-11T07:41:02.978Z,57.02
2019-02-11T07:43:50.633Z,57.00
2019-02-11T07:46:26.457Z,56.97
2019-02-11T07:48:58.170Z,56.95
2019-02-11T07:51:29.882Z,56.90
2019-02-11T07:54:01.472Z,56.95
2019-02-11T07:56:33.182Z,56.89
2019-02-11T07:59:05.021Z,56.88
2019-02-11T08:01:36.882Z,56.88
2019-02-11T08:04:08.483Z,56.85
2019-02-11T08:06:40.373Z,56.80
2019-02-11T08:09:13.225Z,56.76
2019-02-11T08:11:44.899Z,56.74
2019-02-11T08:14:16.790Z,56.67
2019-02-11T08:16:49.044Z,56.59
2019-02-11T08:19:20.679Z,56.56
2019-02-11T08:21:52.564Z,56.54
2019-02-11T08:24:24.567Z,56.49
2019-02-11T08:26:59.435Z,56.46
2019-02-11T08:29:31.611Z,56.43
2019-02-11T08:32:03.490Z,56.45
2019-02-11T08:34:35.147Z,56.41
2019-02-11T08:37:08.121Z,56.44
2019-02-11T08:39:41.198Z,56.44
2019-02-11T08:42:14.069Z,56.42
2019-02-11T08:44:45.731Z,56.32
2019-02-11T08:47:19.378Z,56.30
2019-02-11T08:49:50.928Z,56.27
2019-02-11T08:52:23.989Z,56.19
2019-02-11T08:54:55.906Z,56.13
2019-02-11T08:57:27.556Z,56.12
2019-02-11T09:00:01.883Z,56.02
2019-02-11T09:02:34.254Z,55.80
2019-02-11T09:05:07.782Z,55.62
2019-02-11T09:07:39.502Z,55.60
2019-02-11T09:10:11.845Z,55.55
2019-02-11T09:12:43.482Z,55.43
2019-02-11T09:15:15.250Z,55.38
2019-02-11T09:17:47.048Z,55.36
2019-02-11T09:20:18.703Z,55.21
2019-02-11T09:22:50.314Z,55.12
2019-02-11T09:25:22.095Z,55.05
2019-02-11T09:27:53.707Z,54.97
2019-02-11T09:30:25.420Z,54.96
2019-02-11T09:32:57.145Z,54.88
2019-02-11T09:35:40.603Z,54.89
2019-02-11T09:38:12.260Z,54.86
2019-02-11T09:40:44.035Z,54.74
2019-02-11T09:43:15.667Z,54.73
2019-02-11T09:45:47.547Z,54.83
2019-02-11T09:48:19.170Z,54.82
2019-02-11T09:50:53.117Z,54.90
2019-02-11T09:53:24.741Z,55.03
2019-02-11T09:55:56.709Z,55.12
2019-02-11T09:58:28.484Z,55.07
2019-02-11T10:01:00.652Z,55.11
2019-02-11T10:03:32.317Z,54.97
2019-02-11T10:06:04.043Z,55.05
2019-02-11T10:08:35.913Z,55.06
2019-02-11T10:11:07.950Z,55.00
2019-02-11T10:13:39.708Z,54.90
2019-02-11T10:16:12.727Z,54.92
2019-02-11T10:18:44.460Z,54.85
2019-02-11T10:21:16.210Z,54.80
2019-02-11T10:23:47.847Z,54.78
2019-02-11T10:26:19.634Z,54.81
2019-02-11T10:28:51.415Z,54.85
2019-02-11T10:31:23.074Z,54.87
2019-02-11T10:33:54.803Z,54.82
2019-02-11T10:36:26.675Z,54.62
2019-02-11T10:38:58.515Z,54.61
2019-02-11T10:41:30.297Z,54.67
2019-02-11T10:44:02.129Z,54.63
2019-02-11T10:46:33.899Z,54.49
2019-02-11T10:49:05.540Z,54.32
2019-02-11T10:51:37.510Z,54.25
2019-02-11T10:54:09.177Z,54.26
2019-02-11T10:56:41.048Z,53.97
2019-02-11T10:59:13.084Z,54.20
2019-02-11T11:01:45.086Z,54.04
2019-02-11T11:04:16.718Z,54.24
2019-02-11T11:06:48.495Z,54.17
2019-02-11T11:09:20.242Z,54.22
2019-02-11T11:11:51.977Z,53.94
2019-02-11T11:14:23.879Z,53.84
2019-02-11T11:16:55.498Z,53.78
2019-02-11T11:19:27.171Z,53.61
2019-02-11T11:21:58.917Z,53.63
2019-02-11T11:24:30.584Z,53.67
2019-02-11T11:27:02.270Z,53.64
2019-02-11T11:29:34.017Z,53.68
2019-02-11T11:32:05.788Z,53.67
2019-02-11T11:34:37.439Z,53.55
2019-02-11T11:37:09.185Z,53.54
2019-02-11T11:39:40.838Z,53.58
2019-02-11T11:42:12.752Z,53.60
2019-02-11T11:44:44.784Z,53.49
2019-02-11T11:47:16.714Z,53.36
2019-02-11T11:49:48.386Z,53.31
2019-02-11T11:52:20.050Z,53.31
2019-02-11T11:54:53.523Z,53.29
2019-02-11T11:57:25.434Z,53.24
2019-02-11T12:00:16.368Z,53.20
2019-02-11T12:03:07.080Z,53.14
2019-02-11T12:05:39.007Z,53.02
2019-02-11T12:08:10.785Z,53.02
2019-02-11T12:10:42.470Z,53.07
2019-02-11T12:13:22.657Z,53.04
2019-02-11T12:15:52.269Z,52.93
2019-02-11T12:18:23.998Z,52.90
2019-02-11T12:20:55.685Z,52.87
2019-02-11T12:23:28.044Z,52.92
2019-02-11T12:26:00.316Z,52.88
2019-02-11T12:28:32.327Z,52.78
2019-02-11T12:31:04.182Z,52.69
2019-02-11T12:33:35.851Z,52.59
2019-02-11T12:36:09.291Z,52.61
2019-02-11T12:38:41.132Z,52.50
2019-02-11T12:41:13.096Z,52.43
2019-02-11T12:43:46.283Z,52.31
2019-02-11T12:46:18.156Z,52.20
2019-02-11T12:48:49.744Z,52.11
2019-02-11T12:51:21.457Z,51.94
2019-02-11T12:53:53.240Z,51.82
2019-02-11T12:56:24.996Z,51.83
2019-02-11T12:58:57.061Z,51.79
2019-02-11T13:01:29.150Z,51.82
2019-02-11T13:04:00.833Z,51.72
2019-02-11T13:06:32.618Z,51.41
2019-02-11T13:09:05.652Z,51.41
2019-02-11T13:11:37.295Z,51.37
2019-02-11T13:14:09.140Z,51.43
2019-02-11T13:16:41.122Z,51.25
2019-02-11T13:19:12.794Z,51.25
2019-02-11T13:21:44.517Z,51.26
2019-02-11T13:24:17.718Z,51.21
2019-02-11T13:26:49.468Z,51.20
2019-02-11T13:29:22.054Z,51.15
2019-02-11T13:31:53.948Z,51.21
2019-02-11T13:34:25.870Z,51.23
2019-02-11T13:36:57.562Z,51.23
2019-02-11T13:39:29.511Z,51.19
2019-02-11T13:42:01.251Z,51.11
2019-02-11T13:44:33.139Z,51.18
2019-02-11T13:47:05.026Z,51.12
2019-02-11T13:49:37.168Z,51.13
2019-02-11T13:52:09.146Z,51.12
2019-02-11T13:54:40.988Z,51.02
2019-02-11T13:57:12.865Z,51.08
2019-02-11T13:59:43.712Z,51.13
2019-02-11T14:02:13.046Z,51.08
2019-02-11T14:04:47.256Z,51.09
2019-02-11T14:07:19.000Z,51.05
2019-02-11T14:09:50.758Z,51.09
2019-02-11T14:12:22.804Z,51.16
2019-02-11T14:14:54.654Z,51.13
2019-02-11T14:17:26.356Z,51.10
2019-02-11T14:20:03.614Z,51.17
2019-02-11T14:22:35.387Z,51.21
2019-02-11T14:25:07.429Z,51.21
2019-02-11T14:27:39.203Z,51.24
2019-02-11T14:30:12.473Z,51.13
2019-02-11T14:32:44.524Z,51.06
2019-02-11T14:35:16.938Z,51.07
2019-02-11T14:37:48.945Z,51.04
2019-02-11T14:40:20.764Z,51.07
2019-02-11T14:42:52.769Z,51.11
2019-02-11T14:45:24.683Z,51.12
2019-02-11T14:47:56.391Z,51.04
2019-02-11T14:50:28.267Z,50.98
2019-02-11T14:53:00.012Z,50.93
2019-02-11T14:55:32.207Z,50.88
2019-02-11T14:58:04.090Z,50.88
2019-02-11T15:00:35.282Z,50.94
2019-02-11T15:03:04.573Z,50.97
2019-02-11T15:05:36.702Z,51.19
2019-02-11T15:08:08.460Z,51.72
2019-02-11T15:10:40.571Z,52.38
2019-02-11T15:13:12.261Z,52.82
2019-02-11T15:15:44.152Z,53.16
2019-02-11T15:18:15.861Z,53.52
2019-02-11T15:20:47.620Z,53.92
2019-02-11T15:23:19.291Z,54.01
2019-02-11T15:25:51.147Z,54.35
2019-02-11T15:28:23.387Z,54.46
2019-02-11T15:30:55.267Z,54.62
2019-02-11T15:33:27.324Z,54.81
2019-02-11T15:35:59.595Z,54.93
2019-02-11T15:38:31.675Z,55.10
2019-02-11T15:41:03.407Z,55.14
2019-02-11T15:43:35.456Z,55.20
2019-02-11T15:46:07.391Z,55.23
2019-02-11T15:48:43.130Z,55.18
2019-02-11T15:51:12.965Z,55.14
2019-02-11T15:53:44.753Z,55.17
2019-02-11T15:56:16.561Z,55.19
2019-02-11T15:58:48.632Z,55.21
2019-02-11T16:01:20.613Z,55.23
2019-02-11T16:03:52.727Z,55.23
2019-02-11T16:06:24.422Z,55.17
2019-02-11T16:09:04.158Z,55.16
2019-02-11T16:11:29.813Z,55.18
2019-02-11T16:14:02.118Z,55.17
2019-02-11T16:16:34.059Z,55.19
2019-02-11T16:19:06.089Z,55.19
2019-02-11T16:21:38.073Z,55.16
2019-02-11T16:24:09.899Z,55.15
2019-02-11T16:26:41.632Z,55.15
2019-02-11T16:29:13.713Z,55.17
2019-02-11T16:31:45.622Z,55.21
2019-02-11T16:34:17.336Z,55.18
2019-02-11T16:36:49.375Z,55.16
2019-02-11T16:39:21.353Z,55.09
2019-02-11T16:41:53.008Z,55.03
2019-02-11T16:44:24.690Z,54.98
2019-02-11T16:46:56.636Z,54.93
2019-02-11T16:49:28.376Z,54.87
2019-02-11T16:52:00.357Z,54.80
2019-02-11T16:54:32.053Z,54.73
2019-02-11T16:57:03.938Z,54.69
2019-02-11T16:59:36.281Z,54.71
2019-02-11T17:02:08.163Z,54.70
2019-02-11T17:04:39.867Z,54.75
2019-02-11T17:07:12.085Z,54.82
2019-02-11T17:09:43.807Z,54.85
2019-02-11T17:12:15.458Z,54.85
2019-02-11T17:14:48.613Z,54.88
2019-02-11T17:17:20.604Z,54.91
2019-02-11T17:19:52.425Z,54.95
2019-02-11T17:22:24.512Z,54.95
2019-02-11T17:24:56.264Z,54.98
2019-02-11T17:27:28.042Z,54.97
2019-02-11T17:30:02.081Z,55.02
2019-02-11T17:32:34.102Z,55.04
2019-02-11T17:35:06.010Z,55.06
2019-02-11T17:37:37.646Z,55.09
2019-02-11T17:40:11.821Z,55.11
2019-02-11T17:42:43.799Z,55.11
2019-02-11T17:45:19.096Z,55.07
2019-02-11T17:47:50.849Z,55.11
2019-02-11T17:50:23.698Z,55.08
2019-02-11T17:52:56.721Z,55.09
2019-02-11T17:55:28.422Z,55.09
2019-02-11T17:58:00.632Z,55.08
2019-02-11T18:00:38.777Z,55.06
2019-02-11T18:03:10.482Z,55.05
2019-02-11T18:05:42.250Z,55.04
2019-02-11T18:08:14.047Z,55.03
2019-02-11T18:10:46.953Z,55.02
2019-02-11T18:13:19.135Z,54.98
2019-02-11T18:15:50.881Z,54.96
2019-02-11T18:18:22.776Z,54.92
2019-02-11T18:20:54.506Z,54.91
2019-02-11T18:23:26.323Z,54.93
2019-02-11T18:25:58.069Z,54.92
2019-02-11T18:28:29.923Z,54.92
2019-02-11T18:31:03.374Z,54.92
2019-02-11T18:33:37.614Z,54.88
2019-02-11T18:36:09.764Z,54.86
2019-02-11T18:38:41.888Z,54.87
2019-02-11T18:41:15.663Z,54.89
2019-02-11T18:43:47.470Z,55.00
2019-02-11T18:46:19.522Z,55.06
2019-02-11T18:48:52.656Z,55.12
2019-02-11T18:51:24.370Z,55.17
2019-02-11T18:53:56.096Z,55.19
2019-02-11T18:56:27.856Z,55.22
2019-02-11T18:58:59.767Z,55.25
2019-02-11T19:01:31.607Z,55.26
2019-02-11T19:04:03.814Z,55.25
2019-02-11T19:06:35.731Z,55.26
2019-02-11T19:09:14.065Z,55.31
2019-02-11T19:11:45.813Z,55.36
2019-02-11T19:14:17.678Z,55.43
2019-02-11T19:16:49.655Z,55.51
2019-02-11T19:19:21.410Z,55.54
2019-02-11T19:21:54.189Z,55.58
2019-02-11T19:24:27.260Z,55.59
2019-02-11T19:27:00.197Z,55.59
2019-02-11T19:29:31.894Z,55.73
2019-02-11T19:32:03.755Z,56.63
2019-02-11T19:34:35.598Z,57.44
2019-02-11T19:37:08.155Z,58.06
2019-02-11T19:39:40.078Z,58.08
2019-02-11T19:42:18.828Z,58.50
2019-02-11T19:44:50.574Z,58.36
2019-02-11T19:47:22.357Z,58.34
2019-02-11T19:49:54.322Z,58.42
2019-02-11T19:52:26.718Z,58.50
2019-02-11T19:54:58.531Z,58.58
2019-02-11T19:57:30.360Z,58.73
2019-02-11T20:00:02.332Z,58.92
2019-02-11T20:02:36.137Z,58.87
2019-02-11T20:05:08.939Z,58.88
2019-02-11T20:07:41.434Z,58.82
2019-02-11T20:10:14.360Z,58.76
2019-02-11T20:12:46.102Z,58.65
2019-02-11T20:15:20.551Z,58.62
2019-02-11T20:17:52.276Z,58.54
2019-02-11T20:20:24.543Z,58.45
2019-02-11T20:22:57.210Z,58.39
2019-02-11T20:25:29.063Z,58.35
2019-02-11T20:28:00.737Z,58.29
2019-02-11T20:30:32.435Z,58.23
2019-02-11T20:33:07.135Z,58.25
2019-02-11T20:35:38.946Z,58.22
2019-02-11T20:38:14.532Z,58.22
2019-02-11T20:40:46.344Z,58.23
2019-02-11T20:43:18.277Z,58.24
2019-02-11T20:45:50.008Z,58.24
2019-02-11T20:48:21.891Z,58.30
2019-02-11T20:50:53.713Z,58.36
2019-02-11T20:53:26.129Z,58.48
2019-02-11T20:55:58.027Z,58.56
2019-02-11T20:58:30.116Z,58.59
2019-02-11T21:01:05.406Z,58.61
2019-02-11T21:03:37.259Z,58.63
2019-02-11T21:06:10.128Z,58.62
2019-02-11T21:08:42.624Z,58.57
2019-02-11T21:11:15.812Z,58.59
2019-02-11T21:13:47.521Z,58.60
2019-02-11T21:16:23.171Z,58.65
2019-02-11T21:18:54.903Z,58.67
2019-02-11T21:21:27.157Z,58.71
2019-02-11T21:23:58.869Z,58.73
2019-02-11T21:26:31.409Z,58.73
2019-02-11T21:29:03.047Z,58.71
2019-02-11T21:31:36.899Z,58.73
2019-02-11T21:34:08.421Z,58.79
2019-02-11T21:36:40.733Z,58.84
2019-02-11T21:39:12.600Z,58.89
2019-02-11T21:41:44.982Z,58.90
2019-02-11T21:44:16.790Z,58.91
2019-02-11T21:46:48.525Z,58.82
2019-02-11T21:49:20.212Z,58.79
2019-02-11T21:51:52.158Z,58.73
2019-02-11T21:54:23.827Z,58.72
2019-02-11T21:56:56.267Z,58.77
2019-02-11T21:59:27.945Z,58.78
2019-02-11T22:02:00.286Z,58.79
2019-02-11T22:04:31.992Z,58.84
2019-02-11T22:07:03.860Z,58.87
2019-02-11T22:09:35.532Z,58.94
2019-02-11T22:12:09.497Z,59.01
2019-02-11T22:14:42.353Z,59.11
2019-02-11T22:17:14.045Z,59.17
2019-02-11T22:19:45.889Z,59.21
2019-02-11T22:22:17.854Z,59.23
2019-02-11T22:24:49.602Z,59.28
2019-02-11T22:27:23.447Z,59.32
2019-02-11T22:29:55.353Z,59.31
2019-02-11T22:32:27.551Z,59.28
2019-02-11T22:35:00.658Z,59.30
2019-02-11T22:37:32.347Z,59.28
2019-02-11T22:40:05.521Z,59.27
2019-02-11T22:42:39.761Z,59.28
2019-02-11T22:45:14.779Z,59.30
2019-02-11T22:47:46.560Z,59.41
2019-02-11T22:50:18.274Z,59.47
2019-02-11T22:52:49.887Z,59.67
2019-02-11T22:55:21.531Z,59.71
2019-02-11T22:57:53.780Z,59.78
2019-02-11T23:00:44.584Z,59.81
2019-02-11T23:03:16.537Z,59.79
2019-02-11T23:05:48.265Z,59.74
2019-02-11T23:08:20.023Z,59.70
2019-02-11T23:10:55.125Z,59.65
2019-02-11T23:13:27.388Z,59.54
2019-02-11T23:16:02.157Z,59.43
2019-02-11T23:18:33.831Z,59.26
2019-02-11T23:21:05.634Z,59.12
2019-02-11T23:23:37.260Z,59.02
2019-02-11T23:26:08.955Z,58.93
2019-02-11T23:28:40.702Z,58.87
2019-02-11T23:31:13.179Z,58.86
2019-02-11T23:33:46.544Z,58.95
2019-02-11T23:36:18.575Z,59.00
2019-02-11T23:38:51.224Z,59.04
2019-02-11T23:41:23.107Z,59.04
2019-02-11T23:43:54.915Z,59.05
2019-02-11T23:46:27.204Z,59.02
2019-02-11T23:48:58.823Z,59.04
2019-02-11T23:51:31.175Z,59.06
2019-02-11T23:54:02.844Z,59.11
2019-02-11T23:56:34.571Z,59.15
2019-02-11T23:59:06.623Z,59.22
